TimeEST,TemperatureF,Dew PointF,Humidity,Sea Level PressureIn,VisibilityMPH,Wind Direction,Wind SpeedMPH,Gust SpeedMPH,PrecipitationIn,Events,Conditions,WindDirDegrees,DateUTC
12:14 AM,30.9,29.7,95,30.15,7.0,Calm,Calm,-,N/A,,Scattered Clouds,0,2012-11-20 05:14:00
12:34 AM,32.0,30.7,95,30.15,10.0,Calm,Calm,-,N/A,,Scattered Clouds,0,2012-11-20 05:34:00
12:54 AM,32.7,31.1,94,30.15,4.0,Calm,Calm,-,N/A,,Clear,0,2012-11-20 05:54:00
1:14 AM,33.1,31.6,94,30.15,3.0,Calm,Calm,-,N/A,,Clear,0,2012-11-20 06:14:00
1:34 AM,32.4,30.6,93,30.14,7.0,SSW,3.5,-,N/A,,Clear,210,2012-11-20 06:34:00
1:54 AM,31.6,30.0,94,30.14,10.0,SW,3.5,-,N/A,,Clear,220,2012-11-20 06:54:00
2:13 AM,32.0,30.9,96,30.14,10.0,SSW,3.5,-,N/A,,Clear,210,2012-11-20 07:13:00
2:34 AM,32.2,31.6,98,30.14,7.0,SSW,4.6,-,N/A,,Clear,210,2012-11-20 07:34:00
2:54 AM,32.7,32.0,97,30.14,7.0,Calm,Calm,-,N/A,,Clear,0,2012-11-20 07:54:00
3:13 AM,32.4,31.6,97,30.13,7.0,South,3.5,-,N/A,,Clear,190,2012-11-20 08:13:00
3:34 AM,32.2,31.3,96,30.13,7.0,Calm,Calm,-,N/A,,Clear,0,2012-11-20 08:34:00
3:54 AM,32.4,31.8,98,30.13,4.0,Calm,Calm,-,N/A,,Clear,0,2012-11-20 08:54:00
4:13 AM,32.9,32.0,96,30.12,4.0,Calm,Calm,-,N/A,,Scattered Clouds,0,2012-11-20 09:13:00
4:34 AM,32.9,32.0,96,30.12,4.0,Calm,Calm,-,N/A,,Overcast,0,2012-11-20 09:34:00
4:54 AM,34.3,33.8,98,30.12,2.5,Calm,Calm,-,N/A,,Scattered Clouds,0,2012-11-20 09:54:00
5:13 AM,32.0,31.3,97,30.13,2.5,Calm,Calm,-,N/A,,Mostly Cloudy,0,2012-11-20 10:13:00
5:34 AM,32.2,31.8,99,30.12,2.5,Calm,Calm,-,N/A,,Scattered Clouds,0,2012-11-20 10:34:00
5:54 AM,30.0,28.9,96,30.12,4.0,SW,4.6,-,N/A,,Clear,230,2012-11-20 10:54:00
6:14 AM,29.8,29.1,97,30.12,3.0,Calm,Calm,-,N/A,,Clear,0,2012-11-20 11:14:00
6:34 AM,29.8,29.1,97,30.12,4.0,Calm,Calm,-,N/A,,Clear,0,2012-11-20 11:34:00
6:54 AM,31.8,31.1,97,30.12,4.0,Calm,Calm,-,N/A,,Clear,0,2012-11-20 11:54:00
7:14 AM,33.8,32.2,94,30.12,7.0,Calm,Calm,-,N/A,,Clear,0,2012-11-20 12:14:00
7:34 AM,32.4,30.9,94,30.12,5.0,SW,3.5,-,N/A,,Scattered Clouds,220,2012-11-20 12:34:00
7:54 AM,32.0,30.9,96,30.12,4.0,Calm,Calm,-,N/A,,Clear,0,2012-11-20 12:54:00
7:58 AM,32.2,31.5,97,30.12,4.0,South,4.6,-,N/A,,Clear,170,2012-11-20 12:58:00
8:34 AM,34.7,33.6,96,30.12,5.0,SW,5.8,-,N/A,,Scattered Clouds,220,2012-11-20 13:34:00
8:54 AM,36.5,34.5,93,30.13,5.0,Calm,Calm,-,N/A,,Scattered Clouds,0,2012-11-20 13:54:00
9:14 AM,37.4,34.3,89,30.12,7.0,Calm,Calm,-,N/A,,Mostly Cloudy,0,2012-11-20 14:14:00
9:33 AM,38.5,34.9,87,30.12,7.0,Calm,Calm,-,N/A,,Overcast,0,2012-11-20 14:33:00
9:54 AM,40.3,35.6,83,30.12,7.0,Calm,Calm,-,N/A,,Overcast,0,2012-11-20 14:54:00
10:14 AM,41.2,35.8,81,30.13,10.0,SSW,4.6,-,N/A,,Overcast,210,2012-11-20 15:14:00
10:34 AM,41.5,35.6,79,30.13,10.0,SW,4.6,-,N/A,,Overcast,220,2012-11-20 15:34:00
10:54 AM,42.8,36.1,77,30.13,10.0,SW,4.6,-,N/A,,Overcast,220,2012-11-20 15:54:00
11:14 AM,44.4,36.3,73,30.12,10.0,Calm,Calm,-,N/A,,Overcast,0,2012-11-20 16:14:00
11:34 AM,45.5,36.3,70,30.11,10.0,Calm,Calm,-,N/A,,Overcast,0,2012-11-20 16:34:00
11:54 AM,48.0,36.9,65,30.10,10.0,SSW,3.5,-,N/A,,Overcast,210,2012-11-20 16:54:00
12:14 PM,48.2,36.5,64,30.09,10.0,Calm,Calm,-,N/A,,Overcast,0,2012-11-20 17:14:00
12:34 PM,48.2,36.3,63,30.07,10.0,Calm,Calm,-,N/A,,Overcast,0,2012-11-20 17:34:00
12:54 PM,48.4,36.9,64,30.07,10.0,SSE,3.5,-,N/A,,Overcast,160,2012-11-20 17:54:00
1:14 PM,49.1,37.2,64,30.07,10.0,South,3.5,-,N/A,,Overcast,180,2012-11-20 18:14:00
1:34 PM,49.1,37.6,64,30.08,10.0,Calm,Calm,-,N/A,,Overcast,0,2012-11-20 18:34:00
1:54 PM,49.1,37.6,64,30.08,10.0,Calm,Calm,-,N/A,,Overcast,0,2012-11-20 18:54:00
2:14 PM,48.7,37.4,65,30.08,10.0,Calm,Calm,-,N/A,,Overcast,0,2012-11-20 19:14:00
2:34 PM,48.9,37.9,66,30.08,10.0,Calm,Calm,-,N/A,,Overcast,0,2012-11-20 19:34:00
2:54 PM,48.0,37.9,68,30.08,10.0,Calm,Calm,-,N/A,,Overcast,0,2012-11-20 19:54:00
3:14 PM,48.2,37.4,66,30.09,10.0,SSW,3.5,-,N/A,,Overcast,200,2012-11-20 20:14:00
3:34 PM,47.5,38.3,70,30.09,10.0,SSW,4.6,-,N/A,,Overcast,200,2012-11-20 20:34:00
3:54 PM,46.8,38.3,72,30.09,10.0,SW,3.5,-,N/A,,Overcast,220,2012-11-20 20:54:00
4:14 PM,46.4,37.0,70,30.10,10.0,SW,3.5,-,N/A,,Overcast,230,2012-11-20 21:14:00
4:34 PM,45.7,37.2,72,30.10,10.0,SW,3.5,-,N/A,,Overcast,230,2012-11-20 21:34:00
4:54 PM,45.7,36.9,71,30.10,10.0,Calm,Calm,-,N/A,,Overcast,0,2012-11-20 21:54:00
5:14 PM,44.8,36.9,74,30.10,10.0,Calm,Calm,-,N/A,,Overcast,0,2012-11-20 22:14:00
5:34 PM,44.6,36.7,74,30.10,10.0,Calm,Calm,-,N/A,,Overcast,0,2012-11-20 22:34:00
5:54 PM,43.9,36.5,75,30.10,10.0,Calm,Calm,-,N/A,,Mostly Cloudy,0,2012-11-20 22:54:00
6:13 PM,41.4,36.1,82,30.11,10.0,Calm,Calm,-,N/A,,Mostly Cloudy,0,2012-11-20 23:13:00
6:34 PM,39.2,35.6,87,30.12,10.0,SSW,4.6,-,N/A,,Overcast,210,2012-11-20 23:34:00
6:54 PM,38.8,35.6,88,30.12,10.0,Calm,Calm,-,N/A,,Overcast,0,2012-11-20 23:54:00
7:13 PM,39.0,36.0,89,30.12,10.0,Calm,Calm,-,N/A,,Scattered Clouds,0,2012-11-21 00:13:00
7:34 PM,39.2,35.1,85,30.13,10.0,Calm,Calm,-,N/A,,Clear,0,2012-11-21 00:34:00
7:54 PM,37.2,34.0,88,30.12,10.0,South,3.5,-,N/A,,Clear,190,2012-11-21 00:54:00
8:13 PM,34.2,32.4,93,30.13,10.0,SW,4.6,-,N/A,,Clear,230,2012-11-21 01:13:00
8:34 PM,33.3,32.2,96,30.13,7.0,SW,4.6,-,N/A,,Clear,220,2012-11-21 01:34:00
8:54 PM,32.7,31.8,96,30.13,7.0,SSW,3.5,-,N/A,,Clear,210,2012-11-21 01:54:00
9:13 PM,33.4,32.0,94,30.13,10.0,Calm,Calm,-,N/A,,Clear,0,2012-11-21 02:13:00
9:34 PM,34.0,32.0,92,30.14,7.0,Calm,Calm,-,N/A,,Clear,0,2012-11-21 02:34:00
9:54 PM,31.8,29.8,92,30.14,7.0,SW,3.5,-,N/A,,Clear,220,2012-11-21 02:54:00
10:14 PM,31.1,30.0,96,30.14,4.0,Calm,Calm,-,N/A,,Clear,0,2012-11-21 03:14:00
10:34 PM,32.5,31.3,95,30.14,7.0,Calm,Calm,-,N/A,,Clear,0,2012-11-21 03:34:00
10:54 PM,30.0,28.2,93,30.14,7.0,Calm,Calm,-,N/A,,Clear,0,2012-11-21 03:54:00
11:14 PM,28.6,27.5,96,30.14,0.2,Calm,Calm,-,N/A,Fog,Light Freezing Fog,0,2012-11-21 04:14:00
11:34 PM,29.3,28.4,96,30.14,0.5,Calm,Calm,-,N/A,Fog,Light Freezing Fog,0,2012-11-21 04:34:00
11:54 PM,28.2,27.5,97,30.15,1.8,Calm,Calm,-,N/A,,Overcast,0,2012-11-21 04:54:00